Anaconda, Montana
Current Conditions -  °F | °C
As of 5:53 PM on Saturday 25 Oct 2014 (Local Time) from KBTM Reporting Station
Clear Clear  
Wind Chill: 61°   Ceiling: Unl
Heat Index: 61°   Visibility: 10mi
Dew Point: 32°   Wind: 13mph
Humidity: 34%   Direction: 150°SSE
Pressure: 29.79"   Gusts: NA
Location:  46.13°N, 112.94°W
Report Text: KBTM 252353Z AUTO 15011KT 10SM CLR 16/00 A2979 RMK AO2 SLP074 T01610000 10194 20106 56019
Loading
Personal Weather Stations






























Interactive Weather Map
Tropical Storm Tracking
New forecast layout! Learn more

10-Day Weather Forecast

Advertisements
Track Severe Weather on mobile